sensor_id;sensor_type;location;lat;lon;timestamp;pressure;altitude;pressure_sealevel;temperature;humidity
75942;BME280;64622;46.220;19.878;2023-04-01T00:01:13;99222.69;;;9.39;100.00
75942;BME280;64622;46.220;19.878;2023-04-01T00:03:40;99228.91;;;9.31;100.00
75942;BME280;64622;46.220;19.878;2023-04-01T00:06:07;99224.44;;;9.24;100.00
75942;BME280;64622;46.220;19.878;2023-04-01T00:08:34;99228.94;;;9.23;100.00
75942;BME280;64622;46.220;19.878;2023-04-01T00:11:01;99226.16;;;9.17;100.00
75942;BME280;64622;46.220;19.878;2023-04-01T00:13:28;99232.78;;;9.21;100.00
75942;BME280;64622;46.220;19.878;2023-04-01T00:15:55;99234.34;;;9.15;100.00
75942;BME280;64622;46.220;19.878;2023-04-01T00:18:22;99236.47;;;9.20;100.00
75942;BME280;64622;46.220;19.878;2023-04-01T00:20:51;99226.81;;;9.19;100.00
75942;BME280;64622;46.220;19.878;2023-04-01T00:23:19;99218.25;;;9.23;100.00
75942;BME280;64622;46.220;19.878;2023-04-01T00:25:47;99226.78;;;9.27;100.00
75942;BME280;64622;46.220;19.878;2023-04-01T00:28:16;99218.56;;;9.28;100.00
75942;BME280;64622;46.220;19.878;2023-04-01T00:30:42;99222.53;;;9.32;100.00
75942;BME280;64622;46.220;19.878;2023-04-01T00:33:10;99219.38;;;9.37;100.00
75942;BME280;64622;46.220;19.878;2023-04-01T00:35:39;99218.34;;;9.38;100.00
75942;BME280;64622;46.220;19.878;2023-04-01T00:38:06;99221.50;;;9.41;100.00
75942;BME280;64622;46.220;19.878;2023-04-01T00:40:36;99217.81;;;9.42;100.00
75942;BME280;64622;46.220;19.878;2023-04-01T00:43:05;99220.66;;;9.41;100.00
75942;BME280;64622;46.220;19.878;2023-04-01T00:45:39;99215.84;;;9.36;100.00
75942;BME280;64622;46.220;19.878;2023-04-01T00:48:10;99201.97;;;9.41;100.00
75942;BME280;64622;46.220;19.878;2023-04-01T00:50:39;99215.00;;;9.36;100.00
75942;BME280;64622;46.220;19.878;2023-04-01T00:53:07;99214.31;;;9.42;100.00
75942;BME280;64622;46.220;19.878;2023-04-01T00:55:36;99201.78;;;9.42;100.00
75942;BME280;64622;46.220;19.878;2023-04-01T00:58:09;99212.34;;;9.36;100.00
75942;BME280;64622;46.220;19.878;2023-04-01T01:00:38;99218.34;;;9.38;100.00
75942;BME280;64622;46.220;19.878;2023-04-01T01:03:04;99216.87;;;9.35;100.00
75942;BME280;64622;46.220;19.878;2023-04-01T01:05:47;99214.22;;;9.27;100.00
75942;BME280;64622;46.220;19.878;2023-04-01T01:10:52;99211.69;;;9.34;100.00
75942;BME280;64622;46.220;19.878;2023-04-01T01:13:31;99207.38;;;9.33;100.00
75942;BME280;64622;46.220;19.878;2023-04-01T01:16:10;99196.53;;;9.34;100.00
75942;BME280;64622;46.220;19.878;2023-04-01T01:28:01;99215.22;;;9.34;100.00
75942;BME280;64622;46.220;19.878;2023-04-01T01:30:48;99196.81;;;9.39;100.00
75942;BME280;64622;46.220;19.878;2023-04-01T01:35:53;99195.56;;;9.50;100.00
75942;BME280;64622;46.220;19.878;2023-04-01T01:38:27;99187.72;;;9.48;100.00
75942;BME280;64622;46.220;19.878;2023-04-01T01:40:56;99197.22;;;9.51;100.00
75942;BME280;64622;46.220;19.878;2023-04-01T01:43:27;99209.03;;;9.56;100.00
75942;BME280;64622;46.220;19.878;2023-04-01T01:46:01;99210.34;;;9.60;100.00
75942;BME280;64622;46.220;19.878;2023-04-01T01:48:30;99209.16;;;9.63;100.00
75942;BME280;64622;46.220;19.878;2023-04-01T01:50:57;99213.00;;;9.60;100.00
75942;BME280;64622;46.220;19.878;2023-04-01T01:53:25;99205.50;;;9.56;100.00
75942;BME280;64622;46.220;19.878;2023-04-01T01:55:52;99201.13;;;9.63;100.00
75942;BME280;64622;46.220;19.878;2023-04-01T01:58:30;99200.47;;;9.61;100.00
75942;BME280;64622;46.220;19.878;2023-04-01T02:01:00;99196.97;;;9.60;100.00
75942;BME280;64622;46.220;19.878;2023-04-01T02:03:30;99193.47;;;9.60;100.00
75942;BME280;64622;46.220;19.878;2023-04-01T02:06:00;99182.78;;;9.60;100.00
75942;BME280;64622;46.220;19.878;2023-04-01T02:08:36;99186.66;;;9.57;100.00
75942;BME280;64622;46.220;19.878;2023-04-01T02:11:08;99163.88;;;9.47;100.00
75942;BME280;64622;46.220;19.878;2023-04-01T02:16:19;99180.38;;;9.50;100.00
75942;BME280;64622;46.220;19.878;2023-04-01T02:18:50;99169.56;;;9.44;100.00
75942;BME280;64622;46.220;19.878;2023-04-01T02:21:21;99173.53;;;9.48;100.00
75942;BME280;64622;46.220;19.878;2023-04-01T02:23:50;99176.72;;;9.43;100.00
75942;BME280;64622;46.220;19.878;2023-04-01T02:26:19;99171.59;;;9.42;100.00
75942;BME280;64622;46.220;19.878;2023-04-01T02:28:48;99175.97;;;9.35;100.00
75942;BME280;64622;46.220;19.878;2023-04-01T02:31:16;99160.03;;;9.27;100.00
75942;BME280;64622;46.220;19.878;2023-04-01T02:33:43;99177.69;;;9.28;100.00
75942;BME280;64622;46.220;19.878;2023-04-01T02:36:14;99172.53;;;9.26;100.00
75942;BME280;64622;46.220;19.878;2023-04-01T02:38:43;99174.34;;;9.26;100.00
75942;BME280;64622;46.220;19.878;2023-04-01T02:41:11;99177.56;;;9.21;100.00
75942;BME280;64622;46.220;19.878;2023-04-01T02:43:38;99173.25;;;9.20;100.00
75942;BME280;64622;46.220;19.878;2023-04-01T02:46:04;99173.59;;;9.17;100.00
75942;BME280;64622;46.220;19.878;2023-04-01T02:48:31;99179.78;;;9.18;100.00
75942;BME280;64622;46.220;19.878;2023-04-01T02:50:58;99180.13;;;9.15;100.00
75942;BME280;64622;46.220;19.878;2023-04-01T02:53:25;99201.94;;;9.18;100.00
75942;BME280;64622;46.220;19.878;2023-04-01T02:55:52;99191.47;;;9.17;100.00
75942;BME280;64622;46.220;19.878;2023-04-01T02:58:19;99182.62;;;9.16;100.00
75942;BME280;64622;46.220;19.878;2023-04-01T03:00:47;99194.22;;;9.23;100.00
75942;BME280;64622;46.220;19.878;2023-04-01T03:03:14;99184.34;;;9.09;100.00
75942;BME280;64622;46.220;19.878;2023-04-01T03:05:41;99189.78;;;9.16;100.00
75942;BME280;64622;46.220;19.878;2023-04-01T03:08:08;99178.31;;;9.07;100.00
75942;BME280;64622;46.220;19.878;2023-04-01T03:10:35;99193.84;;;9.12;100.00
75942;BME280;64622;46.220;19.878;2023-04-01T03:13:03;99192.44;;;9.16;100.00
75942;BME280;64622;46.220;19.878;2023-04-01T03:15:29;99185.28;;;9.16;100.00
75942;BME280;64622;46.220;19.878;2023-04-01T03:17:56;99182.66;;;9.08;100.00
75942;BME280;64622;46.220;19.878;2023-04-01T03:20:23;99182.31;;;9.11;100.00
75942;BME280;64622;46.220;19.878;2023-04-01T03:22:49;99177.63;;;9.13;100.00
75942;BME280;64622;46.220;19.878;2023-04-01T03:25:17;99183.63;;;9.15;100.00
75942;BME280;64622;46.220;19.878;2023-04-01T03:27:43;99171.63;;;9.11;100.00
75942;BME280;64622;46.220;19.878;2023-04-01T03:30:11;99172.66;;;9.10;100.00
75942;BME280;64622;46.220;19.878;2023-04-01T03:32:38;99179.47;;;9.13;100.00
75942;BME280;64622;46.220;19.878;2023-04-01T03:35:05;99173.28;;;9.12;100.00
75942;BME280;64622;46.220;19.878;2023-04-01T03:37:32;99175.97;;;9.12;100.00
75942;BME280;64622;46.220;19.878;2023-04-01T03:39:59;99180.13;;;9.15;100.00
75942;BME280;64622;46.220;19.878;2023-04-01T03:42:25;99175.97;;;9.12;100.00
75942;BME280;64622;46.220;19.878;2023-04-01T03:44:52;99180.19;;;9.07;100.00
75942;BME280;64622;46.220;19.878;2023-04-01T03:47:18;99179.66;;;9.11;100.00
75942;BME280;64622;46.220;19.878;2023-04-01T03:49:45;99165.16;;;9.06;100.00
75942;BME280;64622;46.220;19.878;2023-04-01T03:52:12;99173.47;;;9.11;100.00
75942;BME280;64622;46.220;19.878;2023-04-01T03:54:39;99168.78;;;9.13;100.00
75942;BME280;64622;46.220;19.878;2023-04-01T03:57:06;99185.28;;;9.16;100.00
75942;BME280;64622;46.220;19.878;2023-04-01T03:59:33;99179.94;;;9.16;100.00
75942;BME280;64622;46.220;19.878;2023-04-01T04:02:00;99172.66;;;9.10;100.00
75942;BME280;64622;46.220;19.878;2023-04-01T04:04:28;99173.97;;;9.14;100.00
75942;BME280;64622;46.220;19.878;2023-04-01T04:06:55;99172.28;;;9.13;100.00
75942;BME280;64622;46.220;19.878;2023-04-01T04:09:23;99164.66;;;9.10;100.00
75942;BME280;64622;46.220;19.878;2023-04-01T04:11:50;99164.66;;;9.10;100.00
75942;BME280;64622;46.220;19.878;2023-04-01T04:14:17;99164.09;;;9.15;100.00
75942;BME280;64622;46.220;19.878;2023-04-01T04:16:44;99176.72;;;9.21;100.00
75942;BME280;64622;46.220;19.878;2023-04-01T04:19:11;99170.78;;;9.11;100.00
75942;BME280;64622;46.220;19.878;2023-04-01T04:21:39;99169.13;;;9.10;100.00
75942;BME280;64622;46.220;19.878;2023-04-01T04:24:06;99173.47;;;9.11;100.00
75942;BME280;64622;46.220;19.878;2023-04-01T04:26:35;99164.66;;;9.10;100.00
75942;BME280;64622;46.220;19.878;2023-04-01T04:29:02;99171.81;;;9.10;100.00
75942;BME280;64622;46.220;19.878;2023-04-01T04:31:30;99174.47;;;9.10;100.00
75942;BME280;64622;46.220;19.878;2023-04-01T04:33:59;99166.34;;;9.03;100.00
75942;BME280;64622;46.220;19.878;2023-04-01T04:36:26;99176.97;;;9.11;100.00
75942;BME280;64622;46.220;19.878;2023-04-01T04:38:53;99165.44;;;9.11;100.00
75942;BME280;64622;46.220;19.878;2023-04-01T04:41:21;99158.12;;;9.13;100.00
75942;BME280;64622;46.220;19.878;2023-04-01T04:43:50;99150.59;;;9.16;100.00
75942;BME280;64622;46.220;19.878;2023-04-01T04:46:19;99141.44;;;9.11;100.00
75942;BME280;64622;46.220;19.878;2023-04-01T04:48:47;99144.94;;;9.11;100.00
75942;BME280;64622;46.220;19.878;2023-04-01T04:51:16;99162.44;;;9.14;100.00
75942;BME280;64622;46.220;19.878;2023-04-01T04:53:44;99165.13;;;9.14;100.00
75942;BME280;64622;46.220;19.878;2023-04-01T04:56:11;99156.25;;;9.13;100.00
75942;BME280;64622;46.220;19.878;2023-04-01T04:58:39;99166.59;;;9.16;100.00
75942;BME280;64622;46.220;19.878;2023-04-01T05:01:11;99172.22;;;9.21;100.00
75942;BME280;64622;46.220;19.878;2023-04-01T05:03:39;99169.25;;;9.16;100.00
75942;BME280;64622;46.220;19.878;2023-04-01T05:06:07;99173.25;;;9.20;100.00
75942;BME280;64622;46.220;19.878;2023-04-01T05:08:35;99167.06;;;9.20;100.00
75942;BME280;64622;46.220;19.878;2023-04-01T05:11:02;99177.41;;;9.23;100.00
75942;BME280;64622;46.220;19.878;2023-04-01T05:13:29;99182.44;;;9.18;100.00
75942;BME280;64622;46.220;19.878;2023-04-01T05:15:56;99164.53;;;9.26;100.00
75942;BME280;64622;46.220;19.878;2023-04-01T05:18:23;99159.59;;;9.38;100.00
75942;BME280;64622;46.220;19.878;2023-04-01T05:20:52;99151.81;;;9.51;100.00
75942;BME280;64622;46.220;19.878;2023-04-01T05:23:20;99143.91;;;9.57;100.00
75942;BME280;64622;46.220;19.878;2023-04-01T05:25:49;99150.97;;;9.73;100.00
75942;BME280;64622;46.220;19.878;2023-04-01T05:28:17;99163.28;;;9.59;100.00
75942;BME280;64622;46.220;19.878;2023-04-01T05:30:44;99159.47;;;9.54;100.00
75942;BME280;64622;46.220;19.878;2023-04-01T05:33:12;99164.81;;;9.54;100.00
75942;BME280;64622;46.220;19.878;2023-04-01T05:35:40;99176.09;;;9.64;100.00
75942;BME280;64622;46.220;19.878;2023-04-01T05:38:07;99156.31;;;9.73;100.00
75942;BME280;64622;46.220;19.878;2023-04-01T05:40:35;99155.56;;;9.79;100.00
75942;BME280;64622;46.220;19.878;2023-04-01T05:43:02;99139.53;;;9.79;100.00
75942;BME280;64622;46.220;19.878;2023-04-01T05:45:29;99142.97;;;9.87;100.00
75942;BME280;64622;46.220;19.878;2023-04-01T05:48:06;99157.91;;;9.82;100.00
75942;BME280;64622;46.220;19.878;2023-04-01T05:50:33;99149.50;;;9.85;100.00
75942;BME280;64622;46.220;19.878;2023-04-01T05:53:00;99162.84;;;9.85;100.00
75942;BME280;64622;46.220;19.878;2023-04-01T05:55:27;99152.00;;;9.86;100.00
75942;BME280;64622;46.220;19.878;2023-04-01T05:57:53;99152.03;;;9.64;100.00
75942;BME280;64622;46.220;19.878;2023-04-01T06:00:20;99157.03;;;9.67;100.00
75942;BME280;64622;46.220;19.878;2023-04-01T06:02:52;99158.50;;;9.69;100.00
75942;BME280;64622;46.220;19.878;2023-04-01T06:05:23;99157.56;;;9.62;100.00
75942;BME280;64622;46.220;19.878;2023-04-01T06:07:57;99151.47;;;9.68;100.00
75942;BME280;64622;46.220;19.878;2023-04-01T06:10:45;99141.53;;;9.62;100.00
75942;BME280;64622;46.220;19.878;2023-04-01T06:13:35;99148.28;;;9.73;100.00
75942;BME280;64622;46.220;19.878;2023-04-01T06:19:29;99140.00;;;9.82;100.00
75942;BME280;64622;46.220;19.878;2023-04-01T06:24:49;99129.88;;;9.92;100.00
75942;BME280;64622;46.220;19.878;2023-04-01T06:33:19;99137.44;;;10.03;100.00
75942;BME280;64622;46.220;19.878;2023-04-01T06:39:02;99140.91;;;10.12;100.00
75942;BME280;64622;46.220;19.878;2023-04-01T06:50:07;99152.00;;;10.01;100.00
75942;BME280;64622;46.220;19.878;2023-04-01T06:53:06;99161.00;;;10.08;100.00
75942;BME280;64622;46.220;19.878;2023-04-01T06:55:53;99157.59;;;10.14;100.00
75942;BME280;64622;46.220;19.878;2023-04-01T06:58:30;99163.37;;;10.17;100.00
75942;BME280;64622;46.220;19.878;2023-04-01T07:01:00;99154.91;;;10.14;100.00
75942;BME280;64622;46.220;19.878;2023-04-01T07:03:36;99166.91;;;10.18;100.00
75942;BME280;64622;46.220;19.878;2023-04-01T07:06:08;99170.13;;;10.28;100.00
75942;BME280;64622;46.220;19.878;2023-04-01T07:08:40;99159.34;;;10.21;100.00
75942;BME280;64622;46.220;19.878;2023-04-01T07:11:22;99164.50;;;10.23;100.00
75942;BME280;64622;46.220;19.878;2023-04-01T07:13:59;99161.56;;;10.18;100.00
75942;BME280;64622;46.220;19.878;2023-04-01T07:16:30;99163.66;;;10.22;100.00
75942;BME280;64622;46.220;19.878;2023-04-01T07:19:06;99157.88;;;10.19;100.00
75942;BME280;64622;46.220;19.878;2023-04-01T07:21:41;99167.63;;;10.26;100.00
75942;BME280;64622;46.220;19.878;2023-04-01T07:24:18;99163.78;;;10.29;100.00
75942;BME280;64622;46.220;19.878;2023-04-01T07:26:48;99158.88;;;10.32;100.00
75942;BME280;64622;46.220;19.878;2023-04-01T07:29:19;99165.69;;;10.35;100.00
75942;BME280;64622;46.220;19.878;2023-04-01T07:45:54;99168.63;;;10.54;100.00
75942;BME280;64622;46.220;19.878;2023-04-01T07:48:09;99173.06;;;10.62;100.00
75942;BME280;64622;46.220;19.878;2023-04-01T07:56:35;99177.13;;;10.58;100.00
75942;BME280;64622;46.220;19.878;2023-04-01T07:59:21;99179.97;;;10.71;100.00
75942;BME280;64622;46.220;19.878;2023-04-01T08:07:31;99172.16;;;10.55;100.00
75942;BME280;64622;46.220;19.878;2023-04-01T08:10:19;99183.41;;;10.65;100.00
75942;BME280;64622;46.220;19.878;2023-04-01T08:13:24;99177.94;;;10.58;100.00
75942;BME280;64622;46.220;19.878;2023-04-01T08:21:43;99176.28;;;10.57;100.00
75942;BME280;64622;46.220;19.878;2023-04-01T08:24:19;99175.47;;;10.71;100.00
75942;BME280;64622;46.220;19.878;2023-04-01T08:26:51;99171.13;;;10.70;100.00
75942;BME280;64622;46.220;19.878;2023-04-01T08:29:26;99177.13;;;10.72;100.00
75942;BME280;64622;46.220;19.878;2023-04-01T08:34:28;99173.81;;;10.70;100.00
75942;BME280;64622;46.220;19.878;2023-04-01T08:37:05;99175.53;;;10.78;100.00
75942;BME280;64622;46.220;19.878;2023-04-01T08:39:41;99169.94;;;10.73;100.00
75942;BME280;64622;46.220;19.878;2023-04-01T08:50:25;99177.50;;;11.05;100.00
75942;BME280;64622;46.220;19.878;2023-04-01T08:56:20;99176.06;;;11.23;100.00
75942;BME280;64622;46.220;19.878;2023-04-01T08:59:16;99185.91;;;11.37;100.00
75942;BME280;64622;46.220;19.878;2023-04-01T09:07:20;99180.44;;;11.45;100.00
75942;BME280;64622;46.220;19.878;2023-04-01T09:13:00;99182.00;;;11.40;100.00
75942;BME280;64622;46.220;19.878;2023-04-01T09:31:43;99167.03;;;11.66;98.46
75942;BME280;64622;46.220;19.878;2023-04-01T09:37:45;99175.50;;;11.91;98.03
75942;BME280;64622;46.220;19.878;2023-04-01T09:43:06;99174.75;;;11.76;96.87
75942;BME280;64622;46.220;19.878;2023-04-01T09:46:12;99166.75;;;11.82;97.06
75942;BME280;64622;46.220;19.878;2023-04-01T09:51:42;99162.72;;;12.20;96.38
75942;BME280;64622;46.220;19.878;2023-04-01T09:54:42;99159.25;;;12.26;95.74
75942;BME280;64622;46.220;19.878;2023-04-01T10:00:44;99169.16;;;12.26;95.20
75942;BME280;64622;46.220;19.878;2023-04-01T10:13:01;99165.75;;;12.45;91.47
75942;BME280;64622;46.220;19.878;2023-04-01T10:17:41;99157.41;;;12.67;90.62
75942;BME280;64622;46.220;19.878;2023-04-01T10:20:22;99163.03;;;12.85;89.75
75942;BME280;64622;46.220;19.878;2023-04-01T10:34:12;99165.84;;;13.05;85.89
75942;BME280;64622;46.220;19.878;2023-04-01T10:36:57;99170.22;;;13.12;85.25
75942;BME280;64622;46.220;19.878;2023-04-01T11:00:00;99169.47;;;13.51;80.68
75942;BME280;64622;46.220;19.878;2023-04-01T11:03:36;99171.13;;;13.39;79.03
75942;BME280;64622;46.220;19.878;2023-04-01T11:06:11;99170.09;;;13.59;79.75
75942;BME280;64622;46.220;19.878;2023-04-01T11:33:36;99154.16;;;13.45;77.60
75942;BME280;64622;46.220;19.878;2023-04-01T11:42:26;99165.94;;;13.37;77.14
75942;BME280;64622;46.220;19.878;2023-04-01T11:45:12;99172.56;;;13.41;77.11
75942;BME280;64622;46.220;19.878;2023-04-01T11:48:07;99175.03;;;13.30;76.60
75942;BME280;64622;46.220;19.878;2023-04-01T11:53:21;99180.84;;;13.46;77.29
75942;BME280;64622;46.220;19.878;2023-04-01T11:56:02;99178.16;;;13.40;77.60
75942;BME280;64622;46.220;19.878;2023-04-01T12:07:03;99182.50;;;13.47;77.15
75942;BME280;64622;46.220;19.878;2023-04-01T12:15:48;99179.19;;;13.39;76.30
75942;BME280;64622;46.220;19.878;2023-04-01T12:18:40;99183.53;;;13.53;76.56
75942;BME280;64622;46.220;19.878;2023-04-01T12:21:18;99189.75;;;13.73;77.08
75942;BME280;64622;46.220;19.878;2023-04-01T12:31:58;99172.56;;;13.48;75.64
75942;BME280;64622;46.220;19.878;2023-04-01T12:37:39;99175.09;;;13.69;75.66
75942;BME280;64622;46.220;19.878;2023-04-01T13:05:31;99180.91;;;13.79;72.25
75942;BME280;64622;46.220;19.878;2023-04-01T13:16:52;99182.75;;;13.78;70.57
75942;BME280;64622;46.220;19.878;2023-04-01T13:28:25;99193.91;;;13.82;69.27
75942;BME280;64622;46.220;19.878;2023-04-01T13:33:53;99193.31;;;13.86;68.29
75942;BME280;64622;46.220;19.878;2023-04-01T13:39:52;99194.31;;;13.85;68.46
75942;BME280;64622;46.220;19.878;2023-04-01T13:42:34;99193.72;;;13.90;68.80
75942;BME280;64622;46.220;19.878;2023-04-01T13:45:26;99186.88;;;14.00;69.20
75942;BME280;64622;46.220;19.878;2023-04-01T13:54:02;99194.75;;;13.95;69.27
75942;BME280;64622;46.220;19.878;2023-04-01T13:56:57;99198.28;;;13.96;69.75
75942;BME280;64622;46.220;19.878;2023-04-01T14:28:08;99197.41;;;13.69;71.35
75942;BME280;64622;46.220;19.878;2023-04-01T14:34:10;99202.41;;;13.79;71.09
75942;BME280;64622;46.220;19.878;2023-04-01T14:40:52;99197.66;;;13.87;70.66
75942;BME280;64622;46.220;19.878;2023-04-01T14:46:21;99187.09;;;13.66;72.03
75942;BME280;64622;46.220;19.878;2023-04-01T14:51:09;99184.81;;;13.70;72.00
75942;BME280;64622;46.220;19.878;2023-04-01T14:53:44;99182.31;;;13.62;72.34
75942;BME280;64622;46.220;19.878;2023-04-01T14:59:26;99175.69;;;13.58;71.03
75942;BME280;64622;46.220;19.878;2023-04-01T15:05:16;99183.16;;;13.88;71.46
75942;BME280;64622;46.220;19.878;2023-04-01T15:11:29;99181.94;;;14.04;71.03
75942;BME280;64622;46.220;19.878;2023-04-01T15:14:01;99188.53;;;14.08;70.37
75942;BME280;64622;46.220;19.878;2023-04-01T15:16:39;99186.69;;;14.02;69.45
75942;BME280;64622;46.220;19.878;2023-04-01T15:24:25;99175.09;;;13.88;68.13
75942;BME280;64622;46.220;19.878;2023-04-01T15:30:01;99173.25;;;13.82;68.84
75942;BME280;64622;46.220;19.878;2023-04-01T15:40:42;99185.63;;;13.77;69.49
75942;BME280;64622;46.220;19.878;2023-04-01T16:00:10;99200.09;;;13.50;71.90
75942;BME280;64622;46.220;19.878;2023-04-01T16:16:13;99212.78;;;13.15;73.11
75942;BME280;64622;46.220;19.878;2023-04-01T16:21:52;99213.78;;;13.08;73.60
75942;BME280;64622;46.220;19.878;2023-04-01T16:26:54;99217.06;;;12.97;73.34
75942;BME280;64622;46.220;19.878;2023-04-01T16:29:33;99230.87;;;12.94;73.26
75942;BME280;64622;46.220;19.878;2023-04-01T16:34:39;99215.94;;;12.85;73.21
75942;BME280;64622;46.220;19.878;2023-04-01T16:37:20;99228.91;;;12.75;74.03
75942;BME280;64622;46.220;19.878;2023-04-01T16:42:51;99234.56;;;12.52;75.57
75942;BME280;64622;46.220;19.878;2023-04-01T16:47:55;99232.84;;;12.45;76.72
75942;BME280;64622;46.220;19.878;2023-04-01T16:50:24;99241.81;;;12.31;76.47
75942;BME280;64622;46.220;19.878;2023-04-01T16:55:50;99251.00;;;12.15;78.70
75942;BME280;64622;46.220;19.878;2023-04-01T16:58:27;99253.56;;;12.02;77.88
75942;BME280;64622;46.220;19.878;2023-04-01T17:01:21;99249.69;;;11.84;79.51
75942;BME280;64622;46.220;19.878;2023-04-01T17:03:53;99251.00;;;11.73;78.97
75942;BME280;64622;46.220;19.878;2023-04-01T17:14:49;99265.47;;;11.58;84.63
75942;BME280;64622;46.220;19.878;2023-04-01T17:20:31;99275.59;;;11.41;88.09
75942;BME280;64622;46.220;19.878;2023-04-01T17:23:14;99281.31;;;11.38;89.55
75942;BME280;64622;46.220;19.878;2023-04-01T17:28:58;99279.88;;;11.07;91.90
75942;BME280;64622;46.220;19.878;2023-04-01T17:31:49;99290.00;;;10.90;93.89
75942;BME280;64622;46.220;19.878;2023-04-01T17:39:49;99301.06;;;10.87;93.90
75942;BME280;64622;46.220;19.878;2023-04-01T17:56:14;99318.94;;;10.87;92.04
75942;BME280;64622;46.220;19.878;2023-04-01T17:58:46;99337.22;;;10.83;92.59
75942;BME280;64622;46.220;19.878;2023-04-01T18:01:25;99337.22;;;10.69;93.08
75942;BME280;64622;46.220;19.878;2023-04-01T18:12:33;99353.63;;;10.51;92.14
75942;BME280;64622;46.220;19.878;2023-04-01T18:15:46;99362.84;;;10.49;92.12
75942;BME280;64622;46.220;19.878;2023-04-01T18:21:37;99362.44;;;10.52;90.44
75942;BME280;64622;46.220;19.878;2023-04-01T18:24:16;99359.31;;;10.48;89.92
75942;BME280;64622;46.220;19.878;2023-04-01T18:27:01;99369.91;;;10.42;89.96
75942;BME280;64622;46.220;19.878;2023-04-01T18:29:44;99361.50;;;10.30;90.23
75942;BME280;64622;46.220;19.878;2023-04-01T18:37:43;99376.19;;;10.12;90.63
75942;BME280;64622;46.220;19.878;2023-04-01T18:40:48;99380.34;;;10.14;90.12
75942;BME280;64622;46.220;19.878;2023-04-01T18:43:30;99377.72;;;9.98;90.88
75942;BME280;64622;46.220;19.878;2023-04-01T18:46:16;99362.28;;;9.86;91.01
75942;BME280;64622;46.220;19.878;2023-04-01T18:48:52;99382.69;;;9.79;91.40
75942;BME280;64622;46.220;19.878;2023-04-01T18:51:37;99373.78;;;9.64;91.89
75942;BME280;64622;46.220;19.878;2023-04-01T18:54:22;99386.28;;;9.63;92.14
75942;BME280;64622;46.220;19.878;2023-04-01T18:56:50;99389.00;;;9.55;92.47
75942;BME280;64622;46.220;19.878;2023-04-01T18:59:36;99380.00;;;9.48;92.47
75942;BME280;64622;46.220;19.878;2023-04-01T19:04:45;99389.41;;;9.44;92.81
75942;BME280;64622;46.220;19.878;2023-04-01T19:09:48;99395.84;;;9.11;94.87
75942;BME280;64622;46.220;19.878;2023-04-01T19:12:37;99382.34;;;9.13;94.79
75942;BME280;64622;46.220;19.878;2023-04-01T19:17:38;99396.22;;;9.00;95.59
75942;BME280;64622;46.220;19.878;2023-04-01T19:20:31;99396.72;;;9.04;95.63
75942;BME280;64622;46.220;19.878;2023-04-01T19:25:54;99408.09;;;8.82;96.86
75942;BME280;64622;46.220;19.878;2023-04-01T19:34:08;99406.28;;;8.66;97.44
75942;BME280;64622;46.220;19.878;2023-04-01T19:36:50;99407.44;;;8.56;98.47
75942;BME280;64622;46.220;19.878;2023-04-01T19:47:49;99418.97;;;8.40;100.00
75942;BME280;64622;46.220;19.878;2023-04-01T19:50:38;99426.12;;;8.48;100.00
75942;BME280;64622;46.220;19.878;2023-04-01T19:53:18;99429.47;;;8.42;100.00
75942;BME280;64622;46.220;19.878;2023-04-01T19:55:55;99430.09;;;8.36;100.00
75942;BME280;64622;46.220;19.878;2023-04-01T20:00:59;99422.78;;;8.22;100.00
75942;BME280;64622;46.220;19.878;2023-04-01T20:12:32;99436.53;;;8.01;100.00
75942;BME280;64622;46.220;19.878;2023-04-01T20:15:30;99432.53;;;7.97;100.00
75942;BME280;64622;46.220;19.878;2023-04-01T20:18:05;99426.66;;;7.85;100.00
75942;BME280;64622;46.220;19.878;2023-04-01T20:20:39;99435.19;;;7.89;100.00
75942;BME280;64622;46.220;19.878;2023-04-01T20:23:21;99434.44;;;7.71;100.00
75942;BME280;64622;46.220;19.878;2023-04-01T20:26:02;99428.13;;;7.64;100.00
75942;BME280;64622;46.220;19.878;2023-04-01T20:28:48;99439.06;;;7.61;100.00
75942;BME280;64622;46.220;19.878;2023-04-01T20:31:34;99425.34;;;7.40;100.00
75942;BME280;64622;46.220;19.878;2023-04-01T20:45:27;99438.00;;;7.38;100.00
75942;BME280;64622;46.220;19.878;2023-04-01T20:50:52;99447.16;;;7.10;100.00
75942;BME280;64622;46.220;19.878;2023-04-01T20:53:36;99443.75;;;7.26;100.00
75942;BME280;64622;46.220;19.878;2023-04-01T20:56:22;99442.31;;;7.06;100.00
75942;BME280;64622;46.220;19.878;2023-04-01T20:58:57;99447.22;;;7.18;100.00
75942;BME280;64622;46.220;19.878;2023-04-01T21:02:02;99450.28;;;7.06;100.00
75942;BME280;64622;46.220;19.878;2023-04-01T21:25:00;99461.72;;;6.98;100.00
75942;BME280;64622;46.220;19.878;2023-04-01T21:44:20;99462.13;;;6.86;100.00
75942;BME280;64622;46.220;19.878;2023-04-01T22:00:25;99461.69;;;6.72;100.00
75942;BME280;64622;46.220;19.878;2023-04-01T22:11:21;99474.84;;;6.57;100.00
75942;BME280;64622;46.220;19.878;2023-04-01T22:14:01;99476.81;;;6.54;100.00
75942;BME280;64622;46.220;19.878;2023-04-01T22:16:43;99477.28;;;6.50;100.00
75942;BME280;64622;46.220;19.878;2023-04-01T22:22:14;99468.56;;;6.57;100.00
75942;BME280;64622;46.220;19.878;2023-04-01T22:30:17;99470.50;;;6.73;100.00
75942;BME280;64622;46.220;19.878;2023-04-01T22:32:59;99470.16;;;6.93;100.00
75942;BME280;64622;46.220;19.878;2023-04-01T22:38:23;99476.94;;;7.13;100.00
75942;BME280;64622;46.220;19.878;2023-04-01T22:41:14;99477.47;;;6.92;100.00
75942;BME280;64622;46.220;19.878;2023-04-01T22:43:43;99485.88;;;6.87;100.00
75942;BME280;64622;46.220;19.878;2023-04-01T22:46:30;99488.66;;;6.78;100.00
75942;BME280;64622;46.220;19.878;2023-04-01T22:49:12;99481.06;;;6.82;100.00
75942;BME280;64622;46.220;19.878;2023-04-01T22:52:16;99489.47;;;6.96;100.00
75942;BME280;64622;46.220;19.878;2023-04-01T22:54:50;99496.75;;;6.93;100.00